Terminal Aerodrome Forecast
Issued by NWS Dodge City, KS

Home | Current Version | Previous Version | Text Only | Print | Product List | Glossary On
Versions: 1 2 3 4 5 6 7 8 9 10 11 12 13 14 15 16 17 18 19 20 21 22 23 24 25 26 27 28 29 30 31 32
000
FTUS43 KDDC 041127
TAFDDC
TAF
KDDC 041127Z 0412/0512 03015KT 5SM -SN OVC040
      TEMPO 0412/0415 2SM -SN BR OVC004
     FM041500 03015G22KT 5SM -SN OVC010
     FM042000 01011KT P6SM BKN020
     FM042200 01008KT P6SM SCT020 BKN050=

USA.gov is the U.S. government's official web portal to all federal, state and local government web resources and services.